No Warnings, Watches, or Advisories

Active alerts


No alerts

Amazon Weather

Hours of Daylight

15 hrs 6 min 19 sec
of Daylight Today
62.9% Day 37.1% Night Which is 19 sec Shorter
Than Yesterday

South Webcam more information South Webcam


Anemometer Webcam more information Anemometer Webcam


You find our weather info also at:

UK Metoffice

Weather Underground

Mid-Atlantic Weather Network

WeatherlinkIP

Citizen Weather Observer Program (CWOP)

HAMweather, WeatherForYou, PWS Weather



Nearby METAR Reports

   
KDUJ - Du Bois, Pennsylvania, USA
Distance from station: NNE 16 mi
Updated: Jun 26 2019 3:53 pm
Mostly Cloudy  
Mostly Cloudy  
   Wind: WSW 15 mph<br />Gust to 15 mph
Wind: WSW 15 mph
Gust to 15 mph
Temperature: 80.6°F
Heat Index: 82.4°F
Dew Point: 64.4°F
Humidity: 58%
Barometer: 30.09 inHg
Clouds: Mostly Cloudy
Visibility: 10 mi
Cloud details: Partly Cloudy 4300 ft,
Mostly Cloudy 5500 ft
KDUJ 261953Z AUTO 24013G19KT 10SM SCT043 BKN055 27/18 A3009 RMK AO2 SLP178 T02670178
KIDI - Indiana/Stewart, Pennsylvania, USA
Distance from station: SSW 23 mi
Updated: Jun 26 2019 3:55 pm
Clear  
Clear  
   Wind: West 9.2 mph<br />Gust to 9.2 mph
Wind: West 9.2 mph
Gust to 9.2 mph
Temperature: 82.4°F
Heat Index: 84.2°F
Dew Point: 66.2°F
Humidity: 58%
Barometer: 30.13 inHg
Clouds: Clear
Visibility: 10 mi
Cloud details: Clear
KIDI 261955Z AUTO 28008G15KT 10SM CLR 28/19 A3013 RMK A01
KFIG - Clearfield, Pennsylvania, USA
Distance from station: ENE 31 mi
Updated: Jun 26 2019 3:54 pm
Clear  
Clear  
   Wind: varies 5.8 mph
Wind: varies 5.8 mph
Temperature: 80.6°F
Heat Index: 82.4°F
Dew Point: 62.6°F
Humidity: 54%
Barometer: 30.09 inHg
Clouds: Clear
Visibility: 10 mi
Cloud details: Clear
KFIG 261954Z AUTO VRB05KT 10SM CLR 27/17 A3009 RMK AO2 SLP181 T02720172
KJST - Johnstown, Pennsylvania, USA
Distance from station: S 44 mi
Updated: Jun 26 2019 3:54 pm
Few Clouds  
Few Clouds  
   Wind: West 11.5 mph<br />Gust to 11.5 mph
Wind: West 11.5 mph
Gust to 11.5 mph
Temperature: 80.6°F
Heat Index: 82.4°F
Dew Point: 62.6°F
Humidity: 54%
Barometer: 30.14 inHg
Clouds: Few Clouds
Visibility: 10 mi
Cloud details: Few Clouds 4300 ft
KJST 261954Z AUTO 26010G19KT 10SM FEW043 27/17 A3014 RMK AO2 SLP191 T02670167
KPIT - Pittsburgh, Pennsylvania, USA
Distance from station: WSW 74 mi
Updated: Jun 26 2019 3:51 pm
Mostly Cloudy  
Mostly Cloudy  
   Wind: West 10.4 mph
Wind: West 10.4 mph
Temperature: 84.2°F
Heat Index: 86°F
Dew Point: 64.4°F
Humidity: 51%
Barometer: 30.1 inHg
Clouds: Mostly Cloudy
Visibility: 10 mi
Cloud details: Mostly Cloudy 4500 ft,
Mostly Cloudy 25000 ft
KPIT 261951Z 27009KT 10SM BKN045 BKN250 29/18 A3010 RMK AO2 SLP189 T02890183
KLBE - Latrobe/Westmorl, Pennsylvania, USA
Distance from station: SSW 52 mi
Updated: Jun 26 2019 3:45 pm
Partly Cloudy  
Partly Cloudy  
   Wind: SW 13.8 mph<br />Gust to 13.8 mph
Wind: SW 13.8 mph
Gust to 13.8 mph
Temperature: 82.4°F
Heat Index: 84.2°F
Dew Point: 66.2°F
Humidity: 58%
Barometer: 30.11 inHg
Clouds: Partly Cloudy
Visibility: 10 mi
Cloud details: Few Clouds 4000 ft,
Partly Cloudy 5500 ft
KLBE 261945Z 23012G22KT 10SM FEW040 SCT055 28/19 A3011
KBTP - Butler Co., Pennsylvania, USA
Distance from station: WSW 52 mi
Updated: Jun 26 2019 3:56 pm
Partly Cloudy  
Partly Cloudy  
   Wind: West 10.4 mph
Wind: West 10.4 mph
Temperature: 84.2°F
Heat Index: 87.8°F
Dew Point: 66.2°F
Humidity: 55%
Barometer: 30.1 inHg
Clouds: Partly Cloudy
Visibility: 10 mi
Cloud details: Partly Cloudy 5500 ft
KBTP 261956Z AUTO 26009KT 10SM SCT055 29/19 A3010 RMK AO2 SLP189 T02890189
KUCP - New Castle Muni, Pennsylvania, USA
Distance from station: W 75 mi
Updated: Jun 26 2019 3:56 pm
Mostly Cloudy  
Mostly Cloudy  
   Wind: North 3.5 mph
Wind: North 3.5 mph
Temperature: 80.6°F
Heat Index: 82.4°F
Dew Point: 64.4°F
Humidity: 58%
Barometer: 30.1 inHg
Clouds: Mostly Cloudy
Visibility: 10 mi
Cloud details: Partly Cloudy 5500 ft,
Mostly Cloudy 9000 ft
KUCP 261956Z AUTO 36003KT 10SM SCT055 BKN090 27/18 A3010 RMK AO2 SLP198 T02720183 PNO $
KFKL - Franklin, Pennsylvania, USA
Distance from station: WNW 54 mi
Updated: Jun 26 2019 3:56 pm
Few Clouds  
Few Clouds  
   Wind: SW 8.1 mph
Wind: SW 8.1 mph
Temperature: 78.8°F
Dew Point: 64.4°F
Humidity: 61%
Barometer: 30.11 inHg
Clouds: Few Clouds
Visibility: 10 mi
Cloud details: Few Clouds 5000 ft
KFKL 261956Z AUTO 23007KT 10SM FEW050 26/18 A3011 RMK AO2 SLP187 T02610178
KAOO - Altoona, Pennsylvania, USA
Distance from station: SE 57 mi
Updated: Jun 26 2019 3:53 pm
Partly Cloudy  
Partly Cloudy  
   Wind: West 9.2 mph<br />Gust to 9.2 mph
Wind: West 9.2 mph
Gust to 9.2 mph
Temperature: 84.2°F
Heat Index: 84.2°F
Dew Point: 60.8°F
Humidity: 45%
Barometer: 30.1 inHg
Clouds: Partly Cloudy
Visibility: 10 mi
Cloud details: Partly Cloudy 6000 ft
KAOO 261953Z AUTO 28008G17KT 10SM SCT060 29/16 A3010 RMK AO2 SLP183 T02940161
KUNV - State College, Pennsylvania, USA
Distance from station: E 61 mi
Updated: Jun 26 2019 3:53 pm
Partly Cloudy  
Partly Cloudy  
   Wind: WNW 9.2 mph
Wind: WNW 9.2 mph
Clouds: Partly Cloudy
Visibility: 10 mi
Cloud details: Partly Cloudy 5000 ft,
Partly Cloudy 7000 ft
KUNV 261953Z 29008KT 10SM SCT050 SCT070 282/18 A3007
KBFD - Bradford, Pennsylvania, USA
Distance from station: NNE 62 mi
Updated: Jun 26 2019 3:53 pm
Few Clouds  
Few Clouds  
   Wind: West 9.2 mph<br />Gust to 9.2 mph
Wind: West 9.2 mph
Gust to 9.2 mph
Temperature: 80.6°F
Heat Index: 80.6°F
Dew Point: 57.2°F
Humidity: 45%
Barometer: 30.09 inHg
Clouds: Few Clouds
Visibility: 10 mi
Cloud details: Few Clouds 5500 ft
KBFD 261953Z AUTO 28008G18KT 10SM FEW055 27/14 A3009 RMK AO2 SLP178 T02720139

Script developed by  Saratoga-weather.org Adapted for the template by  Weerstation Leuven

Equipment we use:

Weather-station
Davis VP2

Weather-program
Cumulus

Weather-server
Dell Inspiron 3521

Provider
Host On A Rope

Davis VP2

Cumulus

Dell Inspiron 3521

Host On A Rope